Waubun, Minnesota
Current Conditions -  °F | °C
As of 7:35 PM on Thursday 27 Nov 2014 (Local Time) from K3N8 Reporting Station
Overcast Overcast  
Wind Chill: -2°   Ceiling: 7500
Heat Index:   Visibility: 10mi
Dew Point: -1°   Wind: 6mph
Humidity: 66%   Direction: 160°SSE
Pressure: 30.2"   Gusts: NA
Location:  47.18°N, 95.94°W
Report Text: K3N8 280135Z AUTO 16005KT 10SM SCT060 OVC075 M13/M18 A3020 RMK AO2 T11321184
Loading
Personal Weather Stations






























Interactive Weather Map New forecast layout! Learn more

10-Day Weather Forecast

Advertisements
Track Severe Weather on mobile